createdAt,value
2022-09-23T00:00:45.012Z,13.80
2022-09-23T00:03:13.180Z,13.80
2022-09-23T00:05:42.114Z,13.90
2022-09-23T00:08:11.433Z,14.00
2022-09-23T00:10:41.218Z,13.70
2022-09-23T00:13:11.002Z,13.80
2022-09-23T00:15:39.821Z,14.00
2022-09-23T00:18:09.772Z,13.90
2022-09-23T00:20:37.839Z,13.80
2022-09-23T00:23:05.910Z,13.80
2022-09-23T00:25:34.204Z,13.90
2022-09-23T00:28:03.313Z,14.00
2022-09-23T00:30:31.497Z,13.90
2022-09-23T00:33:00.318Z,13.80
2022-09-23T00:35:33.441Z,13.70
2022-09-23T00:38:06.715Z,13.50
2022-09-23T00:40:36.442Z,13.70
2022-09-23T00:43:04.779Z,13.70
2022-09-23T00:45:33.158Z,13.70
2022-09-23T00:48:10.879Z,13.70
2022-09-23T00:50:41.159Z,13.70
2022-09-23T00:53:09.779Z,13.50
2022-09-23T00:55:52.843Z,13.50
2022-09-23T00:58:22.660Z,13.40
2022-09-23T01:00:50.788Z,13.30
2022-09-23T01:03:19.704Z,13.50
2022-09-23T01:05:49.353Z,13.50
2022-09-23T01:08:17.644Z,13.50
2022-09-23T01:10:56.575Z,13.40
2022-09-23T01:13:27.645Z,13.20
2022-09-23T01:15:58.960Z,13.30
2022-09-23T01:18:30.411Z,13.40
2022-09-23T01:21:23.772Z,13.30
2022-09-23T01:24:30.551Z,13.30
2022-09-23T01:27:06.768Z,13.30
2022-09-23T01:29:57.316Z,13.30
2022-09-23T01:32:31.244Z,13.30
2022-09-23T01:35:04.110Z,13.30
2022-09-23T01:37:34.416Z,13.30
2022-09-23T01:40:05.187Z,13.20
2022-09-23T01:42:36.025Z,13.10
2022-09-23T01:45:13.115Z,13.30
2022-09-23T01:47:51.304Z,13.20
2022-09-23T01:50:38.459Z,13.20
2022-09-23T01:53:14.843Z,13.10
2022-09-23T01:55:44.285Z,12.90
2022-09-23T01:58:14.729Z,13.10
2022-09-23T02:00:45.302Z,13.00
2022-09-23T02:03:46.000Z,13.20
2022-09-23T02:06:17.758Z,13.00
2022-09-23T02:08:47.228Z,12.90
2022-09-23T02:11:16.235Z,12.90
2022-09-23T02:13:47.702Z,12.90
2022-09-23T02:16:18.535Z,12.70
2022-09-23T02:18:49.010Z,12.40
2022-09-23T02:21:18.404Z,12.20
2022-09-23T02:23:50.595Z,12.10
2022-09-23T02:26:20.499Z,12.20
2022-09-23T02:28:52.807Z,12.50
2022-09-23T02:31:26.760Z,12.60
2022-09-23T02:33:56.382Z,12.90
2022-09-23T02:36:27.944Z,12.80
2022-09-23T02:38:57.697Z,12.40
2022-09-23T02:41:28.482Z,12.30
2022-09-23T02:43:59.727Z,12.20
2022-09-23T02:46:28.377Z,12.30
2022-09-23T02:48:57.824Z,12.30
2022-09-23T02:51:28.938Z,12.30
2022-09-23T02:53:57.433Z,11.80
2022-09-23T02:56:25.537Z,12.30
2022-09-23T02:58:54.387Z,12.20
2022-09-23T03:01:27.759Z,12.40
2022-09-23T03:03:57.468Z,12.10
2022-09-23T03:06:29.129Z,12.30
2022-09-23T03:08:59.896Z,12.30
2022-09-23T03:11:28.089Z,12.30
2022-09-23T03:14:07.397Z,12.20
2022-09-23T03:16:38.260Z,12.10
2022-09-23T03:19:14.287Z,11.70
2022-09-23T03:21:45.242Z,11.70
2022-09-23T03:24:14.490Z,11.70
2022-09-23T03:26:43.657Z,11.70
2022-09-23T03:29:12.459Z,11.50
2022-09-23T03:31:42.486Z,11.60
2022-09-23T03:34:13.027Z,11.60
2022-09-23T03:36:54.049Z,11.60
2022-09-23T03:39:28.060Z,11.60
2022-09-23T03:41:57.143Z,11.50
2022-09-23T03:44:25.297Z,11.30
2022-09-23T03:46:53.405Z,11.20
2022-09-23T03:49:27.448Z,11.40
2022-09-23T03:51:56.841Z,11.40
2022-09-23T03:54:25.352Z,11.30
2022-09-23T03:56:53.385Z,11.20
2022-09-23T03:59:23.083Z,11.20
2022-09-23T04:01:51.182Z,11.20
2022-09-23T04:04:19.482Z,11.30
2022-09-23T04:06:47.650Z,11.20
2022-09-23T04:09:17.227Z,11.10
2022-09-23T04:11:45.343Z,11.00
2022-09-23T04:14:13.630Z,11.30
2022-09-23T04:16:41.742Z,11.00
2022-09-23T04:19:11.717Z,11.10
2022-09-23T04:21:40.240Z,11.20
2022-09-23T04:24:08.513Z,11.00
2022-09-23T04:26:38.131Z,11.20
2022-09-23T04:29:06.317Z,11.00
2022-09-23T04:31:34.924Z,11.00
2022-09-23T04:34:03.065Z,11.00
2022-09-23T04:36:31.261Z,11.00
2022-09-23T04:38:59.416Z,10.90
2022-09-23T04:41:27.501Z,11.00
2022-09-23T04:43:57.531Z,11.00
2022-09-23T04:46:25.667Z,11.20
2022-09-23T04:48:53.756Z,11.20
2022-09-23T04:51:23.148Z,11.30
2022-09-23T04:53:52.239Z,11.70
2022-09-23T04:56:21.780Z,11.80
2022-09-23T04:58:50.068Z,11.80
2022-09-23T05:01:20.267Z,11.70
2022-09-23T05:03:48.434Z,11.50
2022-09-23T05:06:16.491Z,11.80
2022-09-23T05:08:48.563Z,11.70
2022-09-23T05:11:16.612Z,11.70
2022-09-23T05:13:44.676Z,11.80
2022-09-23T05:16:13.083Z,11.70
2022-09-23T05:18:44.005Z,11.50
2022-09-23T05:21:12.243Z,11.50
2022-09-23T05:23:40.791Z,11.20
2022-09-23T05:26:10.232Z,11.30
2022-09-23T05:28:39.457Z,11.40
2022-09-23T05:31:09.003Z,11.50
2022-09-23T05:33:37.621Z,11.30
2022-09-23T05:36:07.706Z,11.70
2022-09-23T05:38:35.800Z,11.60
2022-09-23T05:41:05.117Z,11.60
2022-09-23T05:43:33.410Z,11.60
2022-09-23T05:46:08.221Z,11.50
2022-09-23T05:48:37.043Z,11.80
2022-09-23T05:51:07.621Z,11.50
2022-09-23T05:53:35.790Z,11.70
2022-09-23T05:58:33.032Z,12.00
2022-09-23T06:01:01.106Z,12.20
2022-09-23T06:03:29.291Z,12.10
2022-09-23T06:05:57.416Z,12.20
2022-09-23T06:08:26.895Z,12.00
2022-09-23T06:10:54.968Z,12.30
2022-09-23T06:13:23.028Z,12.30
2022-09-23T06:15:52.263Z,12.10
2022-09-23T06:18:20.362Z,12.30
2022-09-23T06:20:48.450Z,12.50
2022-09-23T06:23:16.514Z,12.50
2022-09-23T06:25:45.918Z,12.70
2022-09-23T06:28:14.628Z,12.60
2022-09-23T06:30:42.724Z,12.80
2022-09-23T06:33:11.286Z,12.80
2022-09-23T06:35:39.469Z,12.90
2022-09-23T06:38:07.680Z,13.10
2022-09-23T06:40:35.809Z,15.00
2022-09-23T06:43:05.279Z,17.00
2022-09-23T06:45:33.349Z,17.30
2022-09-23T06:48:04.964Z,16.60
2022-09-23T06:50:33.255Z,15.90
2022-09-23T06:53:01.327Z,16.40
2022-09-23T06:55:29.360Z,16.10
2022-09-23T06:57:59.133Z,15.20
2022-09-23T07:00:29.276Z,15.20
2022-09-23T07:02:57.532Z,14.80
2022-09-23T07:05:25.682Z,14.50
2022-09-23T07:07:54.717Z,14.60
2022-09-23T07:10:22.739Z,14.60
2022-09-23T07:12:50.811Z,14.70
2022-09-23T07:15:18.952Z,14.60
2022-09-23T07:17:48.438Z,14.80
2022-09-23T07:20:18.036Z,14.80
2022-09-23T07:22:50.022Z,14.80
2022-09-23T07:25:18.178Z,14.60
2022-09-23T07:27:47.209Z,14.90
2022-09-23T07:30:23.484Z,15.30
2022-09-23T07:32:54.845Z,15.00
2022-09-23T07:35:23.225Z,15.30
2022-09-23T07:37:51.596Z,15.20
2022-09-23T07:40:19.689Z,15.40
2022-09-23T07:42:48.008Z,15.30
2022-09-23T07:45:16.220Z,15.20
2022-09-23T07:47:44.323Z,15.40
2022-09-23T07:50:13.748Z,15.70
2022-09-23T07:52:42.920Z,15.80
2022-09-23T07:55:10.945Z,16.30
2022-09-23T07:57:39.074Z,16.30
2022-09-23T08:00:08.280Z,16.40
2022-09-23T08:02:36.377Z,16.40
2022-09-23T08:05:05.866Z,16.70
2022-09-23T08:07:35.441Z,16.80
2022-09-23T08:10:03.513Z,16.80
2022-09-23T08:12:31.573Z,17.00
2022-09-23T08:15:00.513Z,17.30
2022-09-23T08:17:28.563Z,17.50
2022-09-23T08:19:56.627Z,17.40
2022-09-23T08:22:24.652Z,17.70
2022-09-23T08:24:56.098Z,17.80
2022-09-23T08:27:24.871Z,18.00
2022-09-23T08:29:52.978Z,18.10
2022-09-23T08:32:20.999Z,18.20
2022-09-23T08:34:49.219Z,18.40
2022-09-23T08:37:17.968Z,18.60
2022-09-23T08:39:46.195Z,18.70
2022-09-23T08:42:18.969Z,18.80
2022-09-23T08:44:49.519Z,18.50
2022-09-23T08:47:22.733Z,18.70
2022-09-23T08:50:00.553Z,19.10
2022-09-23T08:52:35.869Z,19.20
2022-09-23T08:55:04.259Z,19.40
2022-09-23T08:57:39.558Z,19.60
2022-09-23T09:00:08.776Z,19.70
2022-09-23T09:02:37.342Z,20.00
2022-09-23T09:05:09.415Z,19.60
2022-09-23T09:07:38.780Z,19.60
2022-09-23T09:10:11.842Z,19.70
2022-09-23T09:12:43.189Z,19.50
2022-09-23T09:15:13.918Z,19.90
2022-09-23T09:17:48.605Z,19.90
2022-09-23T09:20:24.265Z,20.30
2022-09-23T09:22:55.111Z,19.60
2022-09-23T09:25:34.545Z,19.40
2022-09-23T09:28:04.337Z,19.70
2022-09-23T09:30:32.470Z,19.60
2022-09-23T09:33:02.754Z,20.00
2022-09-23T09:35:36.847Z,19.80
2022-09-23T09:38:05.833Z,20.10
2022-09-23T09:40:34.614Z,20.30
2022-09-23T09:43:05.625Z,20.30
2022-09-23T09:45:57.568Z,20.80
2022-09-23T09:48:32.478Z,20.60
2022-09-23T09:51:00.583Z,20.80
2022-09-23T09:53:30.554Z,21.10
2022-09-23T09:56:05.186Z,20.80
2022-09-23T09:58:44.057Z,21.50
2022-09-23T10:01:19.799Z,21.30
2022-09-23T10:03:47.874Z,23.80
2022-09-23T10:06:18.265Z,23.50
2022-09-23T10:08:51.166Z,22.30
2022-09-23T10:11:19.576Z,22.30
2022-09-23T10:14:05.598Z,22.20
2022-09-23T10:16:34.399Z,21.90
2022-09-23T10:19:02.647Z,22.70
2022-09-23T10:21:34.719Z,22.60
2022-09-23T10:24:03.793Z,22.20
2022-09-23T10:26:32.885Z,22.40
2022-09-23T10:29:04.632Z,22.50
2022-09-23T10:31:33.293Z,22.80
2022-09-23T10:34:02.360Z,23.60
2022-09-23T10:36:31.269Z,23.40
2022-09-23T10:39:20.961Z,22.90
2022-09-23T10:42:12.989Z,23.80
2022-09-23T10:45:05.835Z,23.50
2022-09-23T10:47:37.310Z,23.00
2022-09-23T10:50:12.000Z,23.30
2022-09-23T10:52:45.844Z,22.80
2022-09-23T10:55:23.117Z,23.40
2022-09-23T10:58:04.378Z,23.40
2022-09-23T11:00:38.248Z,23.40
2022-09-23T11:03:19.447Z,23.70
2022-09-23T11:05:49.762Z,23.50
2022-09-23T11:08:30.603Z,23.30
2022-09-23T11:11:04.425Z,23.70
2022-09-23T11:13:41.236Z,23.90
2022-09-23T11:16:15.424Z,23.80
2022-09-23T11:18:52.212Z,23.70
2022-09-23T11:21:40.674Z,23.90
2022-09-23T11:24:34.087Z,23.60
2022-09-23T11:27:06.703Z,24.80
2022-09-23T11:29:51.895Z,24.10
2022-09-23T11:32:38.390Z,23.70
2022-09-23T11:35:15.270Z,24.20
2022-09-23T11:37:45.892Z,23.80
2022-09-23T11:40:16.614Z,24.00
2022-09-23T11:42:50.686Z,24.80
2022-09-23T11:45:20.090Z,24.40
2022-09-23T11:47:51.668Z,24.00
2022-09-23T11:50:22.611Z,23.10
2022-09-23T11:52:52.675Z,23.80
2022-09-23T11:55:23.313Z,24.20
2022-09-23T11:57:52.847Z,23.60
2022-09-23T12:00:22.486Z,24.20
2022-09-23T12:03:05.362Z,24.50
2022-09-23T12:05:35.906Z,23.80
2022-09-23T12:08:06.720Z,24.70
2022-09-23T12:10:41.883Z,24.40
2022-09-23T12:13:16.304Z,23.80
2022-09-23T12:15:52.918Z,24.00
2022-09-23T12:18:36.014Z,24.60
2022-09-23T12:21:49.357Z,24.90
2022-09-23T12:24:38.166Z,24.30
2022-09-23T12:27:08.228Z,22.30
2022-09-23T12:29:36.351Z,23.30
2022-09-23T12:32:10.090Z,23.30
2022-09-23T12:34:42.047Z,22.50
2022-09-23T12:37:10.281Z,23.80
2022-09-23T12:39:38.984Z,24.60
2022-09-23T12:42:07.747Z,24.70
2022-09-23T12:44:39.293Z,24.70
2022-09-23T12:47:38.979Z,25.00
2022-09-23T12:50:44.250Z,25.10
2022-09-23T12:53:56.823Z,23.90
2022-09-23T12:56:28.285Z,24.40
2022-09-23T12:59:10.832Z,24.60
2022-09-23T13:01:39.029Z,24.40
2022-09-23T13:04:24.769Z,23.60
2022-09-23T13:06:58.808Z,24.30
2022-09-23T13:09:28.198Z,23.30
2022-09-23T13:12:00.054Z,24.40
2022-09-23T13:14:28.682Z,24.60
2022-09-23T13:16:58.472Z,24.50
2022-09-23T13:19:46.371Z,25.20
2022-09-23T13:22:14.531Z,24.90
2022-09-23T13:24:46.566Z,25.30
2022-09-23T13:27:18.911Z,25.30
2022-09-23T13:29:51.862Z,24.90
2022-09-23T13:32:20.683Z,25.20
2022-09-23T13:34:56.621Z,24.80
2022-09-23T13:37:25.689Z,25.10
2022-09-23T13:39:53.731Z,24.60
2022-09-23T13:42:28.261Z,24.80
2022-09-23T13:44:57.752Z,25.00
2022-09-23T13:47:26.002Z,24.60
2022-09-23T13:49:54.097Z,24.20
2022-09-23T13:52:26.483Z,23.80
2022-09-23T13:54:54.528Z,23.70
2022-09-23T13:57:27.637Z,23.30
2022-09-23T13:59:55.740Z,23.60
2022-09-23T14:02:25.814Z,23.60
2022-09-23T14:04:55.516Z,23.60
2022-09-23T14:07:23.565Z,23.80
2022-09-23T14:09:52.563Z,23.80
2022-09-23T14:12:22.436Z,23.70
2022-09-23T14:14:52.808Z,23.70
2022-09-23T14:17:21.619Z,23.50
2022-09-23T14:19:49.823Z,23.30
2022-09-23T14:22:25.024Z,23.80
2022-09-23T14:24:53.386Z,23.70
2022-09-23T14:27:25.281Z,23.50
2022-09-23T14:29:54.735Z,23.70
2022-09-23T14:32:24.911Z,23.70
2022-09-23T14:34:53.684Z,23.70
2022-09-23T14:37:47.457Z,23.10
2022-09-23T14:40:17.319Z,22.70
2022-09-23T14:42:47.298Z,23.30
2022-09-23T14:45:18.637Z,23.40
2022-09-23T14:47:48.735Z,23.30
2022-09-23T14:50:35.959Z,23.40
2022-09-23T14:53:04.369Z,23.10
2022-09-23T14:55:32.454Z,23.30
2022-09-23T14:58:04.733Z,22.80
2022-09-23T15:00:34.176Z,23.10
2022-09-23T15:03:02.804Z,23.10
2022-09-23T15:05:57.944Z,23.00
2022-09-23T15:08:29.476Z,22.80
2022-09-23T15:10:58.775Z,23.10
2022-09-23T15:13:29.603Z,23.20
2022-09-23T15:16:00.514Z,22.90
2022-09-23T15:18:47.605Z,22.30
2022-09-23T15:21:21.833Z,22.80
2022-09-23T15:23:54.691Z,23.20
2022-09-23T15:26:31.717Z,22.70
2022-09-23T15:29:03.991Z,22.50
2022-09-23T15:31:36.398Z,22.80
2022-09-23T15:34:12.346Z,22.80
2022-09-23T15:37:00.396Z,22.90
2022-09-23T15:39:37.788Z,22.70
2022-09-23T15:42:10.415Z,22.50
2022-09-23T15:44:41.359Z,22.40
2022-09-23T15:47:21.185Z,22.40
2022-09-23T15:49:52.480Z,22.70
2022-09-23T15:52:22.210Z,22.90
2022-09-23T15:54:52.177Z,22.50
2022-09-23T15:57:21.590Z,22.40
2022-09-23T15:59:50.037Z,22.50
2022-09-23T16:02:21.416Z,22.50
2022-09-23T16:04:50.374Z,22.80
2022-09-23T16:07:19.757Z,22.40
2022-09-23T16:09:47.820Z,22.50
2022-09-23T16:12:16.029Z,22.50
2022-09-23T16:14:44.124Z,22.60
2022-09-23T16:17:13.084Z,22.40
2022-09-23T16:19:43.613Z,22.40
2022-09-23T16:22:11.925Z,22.30
2022-09-23T16:24:40.206Z,22.10
2022-09-23T16:27:09.387Z,22.20
2022-09-23T16:29:37.463Z,22.10
2022-09-23T16:32:05.652Z,21.70
2022-09-23T16:34:34.878Z,21.70
2022-09-23T16:37:06.694Z,21.70
2022-09-23T16:39:35.615Z,21.40
2022-09-23T16:42:04.090Z,21.30
2022-09-23T16:44:33.252Z,21.30
2022-09-23T16:47:01.331Z,21.10
2022-09-23T16:49:29.396Z,21.20
2022-09-23T16:51:57.475Z,21.20
2022-09-23T16:54:27.143Z,20.90
2022-09-23T16:56:55.212Z,20.90
2022-09-23T16:59:43.319Z,20.60
2022-09-23T17:02:28.749Z,20.70
2022-09-23T17:04:57.172Z,20.70
2022-09-23T17:07:25.217Z,20.80
2022-09-23T17:09:54.660Z,20.50
2022-09-23T17:12:24.442Z,20.30
2022-09-23T17:14:52.608Z,20.30
2022-09-23T17:17:20.667Z,20.40
2022-09-23T17:19:49.077Z,20.20
2022-09-23T17:22:17.159Z,20.20
2022-09-23T17:24:45.253Z,20.20
2022-09-23T17:27:17.379Z,19.90
2022-09-23T17:29:45.555Z,19.80
2022-09-23T17:32:13.614Z,19.80
2022-09-23T17:34:44.107Z,19.70
2022-09-23T17:37:12.264Z,19.50
2022-09-23T17:39:42.477Z,19.20
2022-09-23T17:42:10.639Z,19.30
2022-09-23T17:44:40.335Z,19.20
2022-09-23T17:47:08.431Z,19.20
2022-09-23T17:49:36.537Z,19.00
2022-09-23T17:52:05.847Z,19.00
2022-09-23T17:54:37.706Z,19.10
2022-09-23T17:57:05.870Z,19.00
2022-09-23T17:59:33.968Z,18.90
2022-09-23T18:02:03.511Z,19.00
2022-09-23T18:04:34.935Z,18.80
2022-09-23T18:07:04.512Z,19.00
2022-09-23T18:09:32.647Z,18.80
2022-09-23T18:12:00.732Z,18.80
2022-09-23T18:14:29.021Z,19.00
2022-09-23T18:16:57.044Z,18.90
2022-09-23T18:19:26.501Z,18.90
2022-09-23T18:21:56.216Z,18.60
2022-09-23T18:24:33.200Z,18.60
2022-09-23T18:27:01.835Z,18.40
2022-09-23T18:29:30.235Z,18.20
2022-09-23T18:31:59.309Z,18.40
2022-09-23T18:34:29.552Z,18.40
2022-09-23T18:36:57.623Z,18.50
2022-09-23T18:39:26.014Z,18.20
2022-09-23T18:41:54.871Z,18.10
2022-09-23T18:44:23.616Z,18.00
2022-09-23T18:46:51.952Z,18.10
2022-09-23T18:49:37.634Z,18.00
2022-09-23T18:52:07.095Z,17.70
2022-09-23T18:54:35.271Z,17.70
2022-09-23T18:57:03.310Z,17.80
2022-09-23T18:59:33.512Z,17.90
2022-09-23T19:02:01.788Z,17.80
2022-09-23T19:04:30.129Z,17.80
2022-09-23T19:06:58.898Z,17.80
2022-09-23T19:09:28.357Z,17.80
2022-09-23T19:11:57.768Z,17.30
2022-09-23T19:14:26.558Z,17.60
2022-09-23T19:16:54.594Z,17.70
2022-09-23T19:19:22.664Z,17.80
2022-09-23T19:21:50.753Z,17.80
2022-09-23T19:24:20.578Z,17.50
2022-09-23T19:26:50.385Z,17.50
2022-09-23T19:29:21.723Z,17.70
2022-09-23T19:31:49.957Z,17.50
2022-09-23T19:34:18.871Z,17.50
2022-09-23T19:36:47.748Z,17.50
2022-09-23T19:39:17.512Z,17.50
2022-09-23T19:41:45.632Z,17.50
2022-09-23T19:44:15.277Z,17.30
2022-09-23T19:46:45.427Z,17.50
2022-09-23T19:49:13.884Z,17.20
2022-09-23T19:51:44.072Z,17.30
2022-09-23T19:54:12.948Z,17.30
2022-09-23T19:56:40.979Z,17.30
2022-09-23T19:59:09.562Z,17.10
2022-09-23T20:01:38.991Z,16.90
2022-09-23T20:04:07.276Z,16.80
2022-09-23T20:06:38.020Z,17.20
2022-09-23T20:09:06.276Z,17.10
2022-09-23T20:11:34.636Z,16.90
2022-09-23T20:14:05.332Z,16.90
2022-09-23T20:16:34.574Z,17.00
2022-09-23T20:19:08.035Z,17.00
2022-09-23T20:21:36.538Z,17.10
2022-09-23T20:24:06.634Z,16.80
2022-09-23T20:26:51.979Z,16.80
2022-09-23T20:29:20.015Z,17.10
2022-09-23T20:31:48.565Z,17.10
2022-09-23T20:34:19.638Z,16.90
2022-09-23T20:36:47.706Z,16.90
2022-09-23T20:39:17.556Z,16.60
2022-09-23T20:41:47.058Z,16.60
2022-09-23T20:44:15.168Z,16.70
2022-09-23T20:46:48.107Z,16.60
2022-09-23T20:49:34.200Z,16.60
2022-09-23T20:52:03.118Z,16.30
2022-09-23T20:54:31.749Z,16.60
2022-09-23T20:57:00.567Z,16.50
2022-09-23T20:59:28.687Z,16.70
2022-09-23T21:02:02.737Z,16.60
2022-09-23T21:04:32.332Z,16.50
2022-09-23T21:07:01.447Z,16.50
2022-09-23T21:09:31.002Z,16.50
2022-09-23T21:11:59.019Z,16.30
2022-09-23T21:14:27.079Z,16.40
2022-09-23T21:16:55.752Z,16.00
2022-09-23T21:19:24.465Z,15.90
2022-09-23T21:21:53.861Z,16.20
2022-09-23T21:24:57.315Z,16.20
2022-09-23T21:27:10.077Z,16.00
2022-09-23T21:29:39.422Z,15.90
2022-09-23T21:32:07.781Z,16.10
2022-09-23T21:34:35.975Z,16.10
2022-09-23T21:37:06.011Z,16.00
2022-09-23T21:39:34.105Z,15.90
2022-09-23T21:42:07.428Z,15.70
2022-09-23T21:44:44.613Z,15.70
2022-09-23T21:47:12.735Z,15.90
2022-09-23T21:49:41.693Z,16.10
2022-09-23T21:52:13.137Z,16.00
2022-09-23T21:54:42.480Z,16.10
2022-09-23T21:57:11.552Z,16.10
2022-09-23T21:59:40.794Z,15.80
2022-09-23T22:02:09.341Z,15.80
2022-09-23T22:04:37.492Z,15.80
2022-09-23T22:07:09.971Z,15.80
2022-09-23T22:09:40.320Z,15.90
2022-09-23T22:12:11.803Z,15.50
2022-09-23T22:14:41.349Z,15.40
2022-09-23T22:17:16.318Z,15.40
2022-09-23T22:19:47.252Z,15.50
2022-09-23T22:22:20.741Z,15.60
2022-09-23T22:25:02.045Z,15.60
2022-09-23T22:27:31.170Z,15.50
2022-09-23T22:30:19.236Z,15.50
2022-09-23T22:32:55.108Z,15.70
2022-09-23T22:35:23.457Z,15.70
2022-09-23T22:37:51.897Z,15.80
2022-09-23T22:40:24.916Z,15.70
2022-09-23T22:42:54.316Z,15.80
2022-09-23T22:45:22.336Z,15.90
2022-09-23T22:48:04.729Z,15.70
2022-09-23T22:50:32.843Z,15.60
2022-09-23T22:53:02.844Z,15.70
2022-09-23T22:55:34.406Z,15.80
2022-09-23T22:58:27.647Z,15.70
2022-09-23T23:00:57.212Z,15.70
2022-09-23T23:03:27.396Z,15.70
2022-09-23T23:05:57.515Z,15.90
2022-09-23T23:08:32.825Z,16.00
2022-09-23T23:11:06.417Z,15.80
2022-09-23T23:13:42.944Z,15.70
2022-09-23T23:16:15.179Z,15.70
2022-09-23T23:18:47.215Z,15.80
2022-09-23T23:21:16.073Z,15.80
2022-09-23T23:23:45.340Z,15.70
2022-09-23T23:26:16.011Z,15.70
2022-09-23T23:28:44.605Z,15.70
2022-09-23T23:31:14.197Z,15.70
2022-09-23T23:33:43.188Z,15.70
2022-09-23T23:36:11.722Z,15.90
2022-09-23T23:38:40.509Z,15.80
2022-09-23T23:41:11.649Z,15.40
2022-09-23T23:43:41.387Z,15.30
2022-09-23T23:46:09.805Z,15.30
2022-09-23T23:48:39.366Z,15.60
2022-09-23T23:51:08.439Z,15.90
2022-09-23T23:53:37.624Z,15.90
2022-09-23T23:56:06.495Z,16.10
2022-09-23T23:58:49.408Z,16.10
